createdAt,value
2022-07-25T00:02:14.209Z,16.83
2022-07-25T00:04:42.440Z,14.32
2022-07-25T00:07:12.219Z,17.05
2022-07-25T00:09:40.380Z,14.63
2022-07-25T00:12:08.742Z,15.05
2022-07-25T00:14:39.328Z,12.35
2022-07-25T00:17:07.461Z,14.82
2022-07-25T00:19:35.514Z,13.35
2022-07-25T00:22:03.652Z,16.35
2022-07-25T00:24:33.294Z,14.30
2022-07-25T00:27:02.753Z,14.43
2022-07-25T00:29:30.815Z,12.48
2022-07-25T00:31:58.957Z,14.85
2022-07-25T00:34:26.954Z,15.25
2022-07-25T00:36:55.079Z,15.25
2022-07-25T00:39:23.019Z,14.05
2022-07-25T00:41:52.359Z,11.52
2022-07-25T00:44:25.191Z,14.35
2022-07-25T00:46:53.443Z,13.13
2022-07-25T00:49:21.510Z,12.93
2022-07-25T00:51:49.978Z,13.80
2022-07-25T00:54:18.352Z,14.60
2022-07-25T00:56:47.245Z,15.10
2022-07-25T00:59:17.101Z,15.02
2022-07-25T01:01:47.998Z,12.50
2022-07-25T01:04:17.715Z,15.68
2022-07-25T01:06:46.109Z,13.82
2022-07-25T01:09:14.655Z,11.32
2022-07-25T01:11:42.790Z,12.60
2022-07-25T01:14:13.458Z,15.30
2022-07-25T01:16:42.964Z,13.80
2022-07-25T01:19:10.991Z,15.60
2022-07-25T01:21:42.341Z,12.45
2022-07-25T01:24:12.299Z,12.45
2022-07-25T01:26:40.429Z,15.23
2022-07-25T01:29:08.483Z,14.00
2022-07-25T01:31:36.443Z,15.07
2022-07-25T01:34:04.839Z,14.27
2022-07-25T01:36:33.031Z,13.52
2022-07-25T01:39:02.294Z,15.90
2022-07-25T01:41:30.220Z,14.98
2022-07-25T01:43:58.265Z,17.67
2022-07-25T01:46:26.351Z,16.30
2022-07-25T01:48:54.446Z,14.95
2022-07-25T01:51:22.537Z,15.50
2022-07-25T01:53:54.445Z,13.77
2022-07-25T01:56:23.750Z,13.88
2022-07-25T01:58:51.775Z,12.80
2022-07-25T02:01:21.657Z,17.05
2022-07-25T02:03:50.024Z,12.55
2022-07-25T02:06:20.536Z,16.52
2022-07-25T02:08:48.585Z,13.93
2022-07-25T02:11:17.989Z,12.70
2022-07-25T02:13:47.808Z,12.68
2022-07-25T02:16:15.669Z,17.95
2022-07-25T02:18:43.630Z,17.50
2022-07-25T02:21:14.283Z,16.83
2022-07-25T02:23:43.590Z,15.18
2022-07-25T02:26:12.598Z,15.65
2022-07-25T02:28:41.612Z,19.85
2022-07-25T02:31:11.952Z,18.33
2022-07-25T02:33:40.298Z,21.77
2022-07-25T02:36:09.459Z,25.95
2022-07-25T02:38:37.539Z,22.65
2022-07-25T02:41:06.330Z,20.83
2022-07-25T02:43:34.265Z,14.07
2022-07-25T02:46:02.247Z,21.25
2022-07-25T02:48:31.643Z,18.23
2022-07-25T02:51:00.292Z,17.85
2022-07-25T02:53:54.799Z,13.85
2022-07-25T02:56:21.170Z,15.48
2022-07-25T02:58:49.458Z,16.00
2022-07-25T03:01:17.593Z,13.43
2022-07-25T03:03:47.662Z,12.88
2022-07-25T03:06:15.819Z,13.80
2022-07-25T03:08:44.265Z,15.23
2022-07-25T03:11:14.223Z,13.23
2022-07-25T03:13:42.662Z,13.77
2022-07-25T03:16:11.036Z,14.88
2022-07-25T03:18:39.597Z,12.90
2022-07-25T03:21:16.285Z,13.88
2022-07-25T03:23:53.507Z,14.57
2022-07-25T03:26:28.159Z,15.00
2022-07-25T03:29:05.939Z,13.38
2022-07-25T03:31:46.501Z,15.30
2022-07-25T03:34:15.656Z,16.67
2022-07-25T03:36:48.453Z,15.50
2022-07-25T03:39:21.813Z,25.88
2022-07-25T03:41:51.726Z,16.92
2022-07-25T03:44:32.618Z,13.77
2022-07-25T03:47:11.451Z,17.13
2022-07-25T03:49:50.199Z,15.90
2022-07-25T03:52:23.090Z,13.65
2022-07-25T03:54:52.064Z,15.75
2022-07-25T03:57:21.560Z,15.18
2022-07-25T04:00:02.608Z,16.27
2022-07-25T04:02:53.826Z,17.02
2022-07-25T04:05:26.199Z,16.10
2022-07-25T04:08:10.855Z,17.67
2022-07-25T04:10:40.313Z,18.35
2022-07-25T04:13:09.261Z,16.67
2022-07-25T04:15:38.639Z,14.82
2022-07-25T04:18:08.682Z,16.75
2022-07-25T04:20:45.273Z,16.45
2022-07-25T04:23:15.496Z,19.83
2022-07-25T04:25:46.695Z,17.27
2022-07-25T04:28:16.312Z,17.35
2022-07-25T04:30:46.032Z,15.32
2022-07-25T04:33:15.811Z,16.98
2022-07-25T04:35:56.958Z,19.45
2022-07-25T04:38:27.195Z,14.88
2022-07-25T04:40:56.649Z,17.42
2022-07-25T04:43:26.543Z,16.58
2022-07-25T04:45:58.753Z,18.50
2022-07-25T04:48:29.050Z,17.20
2022-07-25T04:51:04.162Z,17.50
2022-07-25T04:53:42.218Z,17.15
2022-07-25T04:56:12.905Z,15.88
2022-07-25T04:58:43.190Z,18.85
2022-07-25T05:01:11.689Z,19.35
2022-07-25T05:03:40.531Z,18.00
2022-07-25T05:06:09.586Z,16.90
2022-07-25T05:08:40.271Z,17.65
2022-07-25T05:11:08.226Z,19.75
2022-07-25T05:13:36.157Z,19.88
2022-07-25T05:16:04.231Z,18.45
2022-07-25T05:18:32.207Z,14.48
2022-07-25T05:21:00.125Z,20.25
2022-07-25T05:23:28.152Z,21.15
2022-07-25T05:25:57.685Z,16.08
2022-07-25T05:28:25.597Z,16.23
2022-07-25T05:30:53.520Z,16.80
2022-07-25T05:33:21.484Z,17.27
2022-07-25T05:35:49.429Z,17.98
2022-07-25T05:38:17.398Z,16.98
2022-07-25T05:40:45.864Z,15.90
2022-07-25T05:43:15.091Z,16.92
2022-07-25T05:45:44.074Z,17.55
2022-07-25T05:48:12.154Z,17.23
2022-07-25T05:50:40.293Z,15.38
2022-07-25T05:53:08.539Z,19.95
2022-07-25T05:55:40.721Z,18.75
2022-07-25T05:58:09.734Z,18.35
2022-07-25T06:00:40.181Z,14.63
2022-07-25T06:03:08.338Z,16.42
2022-07-25T06:05:36.916Z,16.63
2022-07-25T06:08:04.989Z,16.38
2022-07-25T06:10:33.509Z,19.13
2022-07-25T06:13:01.779Z,17.67
2022-07-25T06:15:30.433Z,17.25
2022-07-25T06:18:00.178Z,18.77
2022-07-25T06:20:28.163Z,15.35
2022-07-25T06:22:56.053Z,15.95
2022-07-25T06:25:24.504Z,16.25
2022-07-25T06:27:52.530Z,14.75
2022-07-25T06:30:20.823Z,15.82
2022-07-25T06:32:49.077Z,15.98
2022-07-25T06:35:18.600Z,15.98
2022-07-25T06:37:46.535Z,16.75
2022-07-25T06:40:15.380Z,18.38
2022-07-25T06:42:44.893Z,19.35
2022-07-25T06:45:14.282Z,13.65
2022-07-25T06:47:44.051Z,15.02
2022-07-25T06:50:14.359Z,13.68
2022-07-25T06:52:44.037Z,15.80
2022-07-25T06:55:14.018Z,15.40
2022-07-25T06:57:42.266Z,17.60
2022-07-25T07:00:13.031Z,16.30
2022-07-25T07:02:50.449Z,14.77
2022-07-25T07:05:18.676Z,15.60
2022-07-25T07:07:48.294Z,15.18
2022-07-25T07:10:16.830Z,15.35
2022-07-25T07:12:45.040Z,13.98
2022-07-25T07:15:16.480Z,13.27
2022-07-25T07:17:44.901Z,14.32
2022-07-25T07:20:13.524Z,15.88
2022-07-25T07:23:16.611Z,15.48
2022-07-25T07:26:02.424Z,16.45
2022-07-25T07:28:42.592Z,14.45
2022-07-25T07:31:20.491Z,12.80
2022-07-25T07:33:55.337Z,12.38
2022-07-25T07:36:29.960Z,14.73
2022-07-25T07:39:12.520Z,15.77
2022-07-25T07:41:51.477Z,13.18
2022-07-25T07:44:32.983Z,13.93
2022-07-25T07:47:14.400Z,12.80
2022-07-25T07:50:17.508Z,12.35
2022-07-25T07:52:57.209Z,14.50
2022-07-25T07:58:30.674Z,11.38
2022-07-25T08:00:58.660Z,12.93
2022-07-25T08:03:26.844Z,12.45
2022-07-25T08:05:55.050Z,11.05
2022-07-25T08:08:26.645Z,13.52
2022-07-25T08:10:59.460Z,11.50
2022-07-25T08:13:30.544Z,11.15
2022-07-25T08:16:00.294Z,15.48
2022-07-25T08:18:29.827Z,13.05
2022-07-25T08:20:58.463Z,10.82
2022-07-25T08:23:27.732Z,12.25
2022-07-25T08:25:56.025Z,9.93
2022-07-25T08:28:25.408Z,10.98
2022-07-25T08:30:53.580Z,11.40
2022-07-25T08:33:22.149Z,12.25
2022-07-25T08:35:52.078Z,10.75
2022-07-25T08:38:20.680Z,11.13
2022-07-25T08:40:48.989Z,10.18
2022-07-25T08:43:18.954Z,9.80
2022-07-25T08:45:49.904Z,9.43
2022-07-25T08:48:19.746Z,12.45
2022-07-25T08:50:49.221Z,10.02
2022-07-25T08:53:35.901Z,9.68
2022-07-25T08:56:10.721Z,12.23
2022-07-25T08:58:41.403Z,8.90
2022-07-25T09:01:10.947Z,10.43
2022-07-25T09:03:40.431Z,11.40
2022-07-25T09:06:19.691Z,11.15
2022-07-25T09:08:55.797Z,10.20
2022-07-25T09:11:32.339Z,9.70
2022-07-25T09:14:02.744Z,10.65
2022-07-25T09:16:36.083Z,9.38
2022-07-25T09:19:13.610Z,9.40
2022-07-25T09:21:43.032Z,9.90
2022-07-25T09:24:14.220Z,9.50
2022-07-25T09:26:47.453Z,16.25
2022-07-25T09:29:20.413Z,9.63
2022-07-25T09:31:50.071Z,9.88
2022-07-25T09:34:30.674Z,10.25
2022-07-25T09:36:59.265Z,10.75
2022-07-25T09:39:35.276Z,10.57
2022-07-25T09:42:03.302Z,9.80
2022-07-25T09:44:31.348Z,9.65
2022-07-25T09:47:11.804Z,9.45
2022-07-25T09:49:42.393Z,9.80
2022-07-25T09:52:11.072Z,11.07
2022-07-25T09:54:39.237Z,10.18
2022-07-25T09:57:07.222Z,10.63
2022-07-25T09:59:35.982Z,10.00
2022-07-25T10:02:10.098Z,11.52
2022-07-25T10:04:57.973Z,10.85
2022-07-25T10:07:31.200Z,10.25
2022-07-25T10:10:01.177Z,10.15
2022-07-25T10:12:29.169Z,10.50
2022-07-25T10:15:11.366Z,11.40
2022-07-25T10:17:43.159Z,10.00
2022-07-25T10:20:11.890Z,10.13
2022-07-25T10:22:57.620Z,10.90
2022-07-25T10:25:26.289Z,14.15
2022-07-25T10:28:01.189Z,11.20
2022-07-25T10:30:35.814Z,9.77
2022-07-25T10:33:12.625Z,9.68
2022-07-25T10:35:41.189Z,11.18
2022-07-25T10:38:09.543Z,9.85
2022-07-25T10:40:41.012Z,10.43
2022-07-25T10:43:12.545Z,9.02
2022-07-25T10:45:45.383Z,10.97
2022-07-25T10:48:25.621Z,11.65
2022-07-25T10:50:59.763Z,12.70
2022-07-25T10:53:39.629Z,10.70
2022-07-25T10:56:10.735Z,9.50
2022-07-25T10:58:48.006Z,12.68
2022-07-25T11:01:21.282Z,9.52
2022-07-25T11:03:54.726Z,11.93
2022-07-25T11:06:34.753Z,10.27
2022-07-25T11:09:04.211Z,9.48
2022-07-25T11:11:40.553Z,9.73
2022-07-25T11:14:16.767Z,12.40
2022-07-25T11:16:45.173Z,11.98
2022-07-25T11:19:22.534Z,10.00
2022-07-25T11:21:52.424Z,10.07
2022-07-25T11:24:20.698Z,10.27
2022-07-25T11:26:51.349Z,10.85
2022-07-25T11:29:20.512Z,9.65
2022-07-25T11:31:56.386Z,9.52
2022-07-25T11:34:28.302Z,11.38
2022-07-25T11:36:58.393Z,11.30
2022-07-25T11:39:28.328Z,9.38
2022-07-25T11:42:04.549Z,10.65
2022-07-25T11:44:35.407Z,10.07
2022-07-25T11:47:04.615Z,9.57
2022-07-25T11:49:44.313Z,11.48
2022-07-25T11:52:21.413Z,10.35
2022-07-25T11:54:54.918Z,10.15
2022-07-25T11:57:24.719Z,9.50
2022-07-25T11:59:53.049Z,10.30
2022-07-25T12:02:25.814Z,10.88
2022-07-25T12:05:01.047Z,10.23
2022-07-25T12:07:45.685Z,10.07
2022-07-25T12:10:16.795Z,10.30
2022-07-25T12:12:50.572Z,9.05
2022-07-25T12:15:21.639Z,10.70
2022-07-25T12:17:49.941Z,9.25
2022-07-25T12:20:21.421Z,9.98
2022-07-25T12:22:50.573Z,10.18
2022-07-25T12:25:18.653Z,9.07
2022-07-25T12:27:46.963Z,9.70
2022-07-25T12:30:15.348Z,7.93
2022-07-25T12:32:43.707Z,7.50
2022-07-25T12:35:13.786Z,6.18
2022-07-25T12:37:43.822Z,5.93
2022-07-25T12:40:12.936Z,6.97
2022-07-25T12:42:40.994Z,6.70
2022-07-25T12:45:09.811Z,7.63
2022-07-25T12:47:38.272Z,9.02
2022-07-25T12:50:07.747Z,6.50
2022-07-25T12:52:35.920Z,7.63
2022-07-25T12:55:06.042Z,6.72
2022-07-25T12:57:34.946Z,10.80
2022-07-25T13:00:03.201Z,8.35
2022-07-25T13:02:31.290Z,6.93
2022-07-25T13:04:59.217Z,9.48
2022-07-25T13:07:27.570Z,6.88
2022-07-25T13:09:55.491Z,8.70
2022-07-25T13:12:25.144Z,9.18
2022-07-25T13:14:53.422Z,7.90
2022-07-25T13:17:26.503Z,9.23
2022-07-25T13:19:56.013Z,9.00
2022-07-25T13:22:24.606Z,7.53
2022-07-25T13:24:52.993Z,7.68
2022-07-25T13:27:21.695Z,10.68
2022-07-25T13:29:54.533Z,8.18
2022-07-25T13:32:26.421Z,10.05
2022-07-25T13:34:54.388Z,17.25
2022-07-25T13:37:22.661Z,8.63
2022-07-25T13:39:50.715Z,8.95
2022-07-25T13:42:18.771Z,8.57
2022-07-25T13:44:46.895Z,8.40
2022-07-25T13:47:16.431Z,7.38
2022-07-25T13:49:44.488Z,13.80
2022-07-25T13:52:12.527Z,7.90
2022-07-25T13:54:40.636Z,7.75
2022-07-25T13:57:09.354Z,12.77
2022-07-25T13:59:37.483Z,17.98
2022-07-25T14:02:05.551Z,19.58
2022-07-25T14:04:34.818Z,19.33
2022-07-25T14:07:07.007Z,19.17
2022-07-25T14:09:35.941Z,15.18
2022-07-25T14:12:03.944Z,11.82
2022-07-25T14:14:32.034Z,13.18
2022-07-25T14:17:00.912Z,14.73
2022-07-25T14:19:29.200Z,13.65
2022-07-25T14:21:58.571Z,12.30
2022-07-25T14:24:26.479Z,12.65
2022-07-25T14:26:55.131Z,11.48
2022-07-25T14:29:27.261Z,10.75
2022-07-25T14:31:58.498Z,11.45
2022-07-25T14:34:28.180Z,9.13
2022-07-25T14:36:56.694Z,10.15
2022-07-25T14:39:26.222Z,9.35
2022-07-25T14:41:54.174Z,8.43
2022-07-25T14:44:22.332Z,9.15
2022-07-25T14:46:50.558Z,10.25
2022-07-25T14:49:19.523Z,9.35
2022-07-25T14:51:47.555Z,9.75
2022-07-25T14:54:15.643Z,12.55
2022-07-25T14:56:46.467Z,9.82
2022-07-25T14:59:14.447Z,8.93
2022-07-25T15:01:42.492Z,8.40
2022-07-25T15:04:10.574Z,8.77
2022-07-25T15:06:38.759Z,9.02
2022-07-25T15:09:07.622Z,11.55
2022-07-25T15:11:35.810Z,8.10
2022-07-25T15:14:05.092Z,9.10
2022-07-25T15:16:33.837Z,10.02
2022-07-25T15:19:25.641Z,9.05
2022-07-25T15:21:53.281Z,8.75
2022-07-25T15:24:23.579Z,7.50
2022-07-25T15:26:55.246Z,10.02
2022-07-25T15:29:25.340Z,12.10
2022-07-25T15:31:56.364Z,8.02
2022-07-25T15:34:24.794Z,8.20
2022-07-25T15:36:52.830Z,7.70
2022-07-25T15:39:20.915Z,8.75
2022-07-25T15:41:48.948Z,8.75
2022-07-25T15:44:17.030Z,7.57
2022-07-25T15:46:46.999Z,7.35
2022-07-25T15:49:16.777Z,7.90
2022-07-25T15:51:44.846Z,8.60
2022-07-25T15:54:12.862Z,9.43
2022-07-25T15:56:41.323Z,7.18
2022-07-25T15:59:09.866Z,8.20
2022-07-25T16:01:38.214Z,8.52
2022-07-25T16:04:08.265Z,9.55
2022-07-25T16:06:36.356Z,7.43
2022-07-25T16:09:05.016Z,6.97
2022-07-25T16:11:33.648Z,14.80
2022-07-25T16:14:01.684Z,10.13
2022-07-25T16:16:33.334Z,12.68
2022-07-25T16:19:01.546Z,9.00
2022-07-25T16:21:31.373Z,9.80
2022-07-25T16:23:59.346Z,8.30
2022-07-25T16:26:27.457Z,9.30
2022-07-25T16:28:57.719Z,9.18
2022-07-25T16:31:26.511Z,9.48
2022-07-25T16:33:54.664Z,6.65
2022-07-25T16:36:22.663Z,7.45
2022-07-25T16:38:53.344Z,9.43
2022-07-25T16:41:21.990Z,8.82
2022-07-25T16:43:49.953Z,10.23
2022-07-25T16:46:18.044Z,9.80
2022-07-25T16:48:46.109Z,10.55
2022-07-25T16:51:14.349Z,9.50
2022-07-25T16:53:42.345Z,8.43
2022-07-25T16:56:11.763Z,7.75
2022-07-25T16:58:39.839Z,14.07
2022-07-25T17:01:07.903Z,11.45
2022-07-25T17:03:35.886Z,8.70
2022-07-25T17:06:03.825Z,7.88
2022-07-25T17:08:32.704Z,7.82
2022-07-25T17:11:01.217Z,9.07
2022-07-25T17:13:30.467Z,7.95
2022-07-25T17:15:58.587Z,8.05
2022-07-25T17:18:26.890Z,8.07
2022-07-25T17:20:55.309Z,9.00
2022-07-25T17:23:23.746Z,5.82
2022-07-25T17:25:53.431Z,7.78
2022-07-25T17:28:22.086Z,7.75
2022-07-25T17:30:51.718Z,5.72
2022-07-25T17:33:19.736Z,9.57
2022-07-25T17:35:47.743Z,8.32
2022-07-25T17:38:15.926Z,4.18
2022-07-25T17:40:44.056Z,7.03
2022-07-25T17:43:12.081Z,6.25
2022-07-25T17:45:40.204Z,7.45
2022-07-25T17:48:10.016Z,5.55
2022-07-25T17:50:38.335Z,4.32
2022-07-25T17:53:06.383Z,5.72
2022-07-25T17:55:38.799Z,5.93
2022-07-25T17:58:07.291Z,9.88
2022-07-25T18:00:35.360Z,10.00
2022-07-25T18:03:03.446Z,7.80
2022-07-25T18:05:33.117Z,6.93
2022-07-25T18:08:02.815Z,4.82
2022-07-25T18:10:31.559Z,4.43
2022-07-25T18:13:01.889Z,8.32
2022-07-25T18:15:29.961Z,5.63
2022-07-25T18:17:58.108Z,6.20
2022-07-25T18:20:28.105Z,6.55
2022-07-25T18:22:58.629Z,6.10
2022-07-25T18:25:27.390Z,5.35
2022-07-25T18:27:55.382Z,6.10
2022-07-25T18:30:27.319Z,3.70
2022-07-25T18:32:57.304Z,6.10
2022-07-25T18:35:25.532Z,6.30
2022-07-25T18:37:53.493Z,6.32
2022-07-25T18:40:22.966Z,4.13
2022-07-25T18:42:51.316Z,6.90
2022-07-25T18:45:19.261Z,6.43
2022-07-25T18:47:49.075Z,6.47
2022-07-25T18:50:19.803Z,6.40
2022-07-25T18:52:47.784Z,4.60
2022-07-25T18:55:16.007Z,7.90
2022-07-25T18:57:45.419Z,4.25
2022-07-25T19:00:13.917Z,2.67
2022-07-25T19:02:41.949Z,3.45
2022-07-25T19:05:10.739Z,4.05
2022-07-25T19:07:39.819Z,4.13
2022-07-25T19:10:08.140Z,4.30
2022-07-25T19:12:36.493Z,5.13
2022-07-25T19:15:06.697Z,7.43
2022-07-25T19:17:35.824Z,4.32
2022-07-25T19:20:04.428Z,8.88
2022-07-25T19:22:32.467Z,5.15
2022-07-25T19:25:01.476Z,5.80
2022-07-25T19:27:29.431Z,3.45
2022-07-25T19:29:57.620Z,6.47
2022-07-25T19:32:27.310Z,6.40
2022-07-25T19:34:55.431Z,8.27
2022-07-25T19:37:23.383Z,7.35
2022-07-25T19:39:53.058Z,16.35
2022-07-25T19:42:21.897Z,3.85
2022-07-25T19:44:50.022Z,6.00
2022-07-25T19:47:18.163Z,11.90
2022-07-25T19:49:47.696Z,6.13
2022-07-25T19:52:15.659Z,3.50
2022-07-25T19:54:43.618Z,5.43
2022-07-25T19:57:11.840Z,6.65
2022-07-25T19:59:42.685Z,7.22
2022-07-25T20:02:11.288Z,5.65
2022-07-25T20:04:39.499Z,4.53
2022-07-25T20:07:14.896Z,3.70
2022-07-25T20:09:45.671Z,7.63
2022-07-25T20:12:15.071Z,6.22
2022-07-25T20:14:43.466Z,3.03
2022-07-25T20:17:12.008Z,3.03
2022-07-25T20:19:40.882Z,3.05
2022-07-25T20:22:11.745Z,5.13
2022-07-25T20:24:43.529Z,5.38
2022-07-25T20:27:11.574Z,3.47
2022-07-25T20:29:39.552Z,6.82
2022-07-25T20:32:08.067Z,3.03
2022-07-25T20:34:36.117Z,2.70
2022-07-25T20:37:04.126Z,3.47
2022-07-25T20:39:33.504Z,3.63
2022-07-25T20:42:02.638Z,3.50
2022-07-25T20:44:30.617Z,3.08
2022-07-25T20:46:58.569Z,6.05
2022-07-25T20:49:26.636Z,2.25
2022-07-25T20:51:54.893Z,4.13
2022-07-25T20:54:23.085Z,3.00
2022-07-25T20:56:53.008Z,2.90
2022-07-25T20:59:20.924Z,5.30
2022-07-25T21:01:49.022Z,3.45
2022-07-25T21:04:18.704Z,8.48
2022-07-25T21:06:46.775Z,3.78
2022-07-25T21:09:14.663Z,2.22
2022-07-25T21:11:42.636Z,5.30
2022-07-25T21:14:12.002Z,4.97
2022-07-25T21:16:39.951Z,4.70
2022-07-25T21:19:08.294Z,6.65
2022-07-25T21:21:37.171Z,5.38
2022-07-25T21:24:06.372Z,4.07
2022-07-25T21:26:34.277Z,5.25
2022-07-25T21:29:02.214Z,4.13
2022-07-25T21:31:31.548Z,3.03
2022-07-25T21:33:59.494Z,5.22
2022-07-25T21:36:28.396Z,5.03
2022-07-25T21:38:56.381Z,4.30
2022-07-25T21:41:24.310Z,4.70
2022-07-25T21:43:52.493Z,4.88
2022-07-25T21:46:20.420Z,4.05
2022-07-25T21:49:07.627Z,5.22
2022-07-25T21:51:40.495Z,4.25
2022-07-25T21:54:09.082Z,5.13
2022-07-25T21:56:37.312Z,4.13
2022-07-25T21:59:06.410Z,4.82
2022-07-25T22:01:34.693Z,3.53
2022-07-25T22:04:05.120Z,4.07
2022-07-25T22:06:33.273Z,4.72
2022-07-25T22:09:01.526Z,3.28
2022-07-25T22:11:42.522Z,3.47
2022-07-25T22:14:14.235Z,3.03
2022-07-25T22:16:42.301Z,2.88
2022-07-25T22:19:11.812Z,2.95
2022-07-25T22:21:40.593Z,3.35
2022-07-25T22:24:09.085Z,3.55
2022-07-25T22:26:37.346Z,5.97
2022-07-25T22:29:05.839Z,4.30
2022-07-25T22:31:34.145Z,6.40
2022-07-25T22:34:02.169Z,4.22
2022-07-25T22:36:31.438Z,2.47
2022-07-25T22:38:59.462Z,2.72
2022-07-25T22:41:27.785Z,5.97
2022-07-25T22:43:58.934Z,3.90
2022-07-25T22:46:28.402Z,3.53
2022-07-25T22:48:56.914Z,3.95
2022-07-25T22:51:30.222Z,6.10
2022-07-25T22:54:00.693Z,3.80
2022-07-25T22:56:28.986Z,4.63
2022-07-25T22:58:57.825Z,6.03
2022-07-25T23:01:26.943Z,2.97
2022-07-25T23:03:55.413Z,4.57
2022-07-25T23:06:23.719Z,3.80
2022-07-25T23:08:52.846Z,3.40
2022-07-25T23:11:22.292Z,5.10
2022-07-25T23:13:51.055Z,4.05
2022-07-25T23:16:19.209Z,3.75
2022-07-25T23:18:47.124Z,6.88
2022-07-25T23:21:15.198Z,3.15
2022-07-25T23:23:43.136Z,5.53
2022-07-25T23:26:11.371Z,5.15
2022-07-25T23:28:40.630Z,4.53
2022-07-25T23:31:08.800Z,4.35
2022-07-25T23:33:36.760Z,3.15
2022-07-25T23:36:05.180Z,4.70
2022-07-25T23:38:33.128Z,5.13
2022-07-25T23:41:01.655Z,2.80
2022-07-25T23:43:56.285Z,2.80
2022-07-25T23:46:24.523Z,5.63
2022-07-25T23:48:57.761Z,4.38
2022-07-25T23:51:25.828Z,6.85
2022-07-25T23:53:53.766Z,4.93
2022-07-25T23:56:21.780Z,4.75
2022-07-25T23:58:50.301Z,4.55
